Time;durP1;ratioP1;P1;durP2;ratioP2;P2;SDS_P1;SDS_P2;PMS_P1;PMS_P2;Temp;Humidity;BMP_temperature;BMP_pressure;BME280_temperature;BME280_humidity;BME280_pressure;Samples;Min_cycle;Max_cycle;Signal;HPM_P1;HPM_P2
2022/05/01 00:00:34;;;;;;;;;;;;;;;14.84;57.45;102296.25;1048867;28;673;-62
2022/05/01 00:01:24;;;;;;;;;;;;;;;14.84;57.22;102287.34;1048838;28;1952;-62
2022/05/01 00:02:14;;;;;;;;;;;;;;;14.83;57.11;102289.16;1048934;28;618;-62
2022/05/01 00:03:06;;;;;;;;;;;;;;;14.81;57.21;102288.38;1048853;28;637;-62
2022/05/01 00:03:57;;;;;;;;;;;;;;;14.82;57.39;102295.47;1049595;28;681;-62
2022/05/01 00:04:47;;;;;;;;;;;;;;;14.82;57.61;102287.44;1048343;28;598;-62
2022/05/01 00:05:38;;;;;;;;;;;;;;;14.82;57.37;102295.47;1048933;28;630;-62
2022/05/01 00:06:31;;;;;;;;;;;;;;;14.81;57.46;102290.19;1048576;28;688;-62
2022/05/01 00:07:22;;;;;;;;;;;;;;;14.81;57.27;102291.06;1049384;28;754;-62
2022/05/01 00:08:14;;;;;;;;;;;;;;;14.81;57.18;102290.19;1047199;28;650;-62
2022/05/01 00:09:04;;;;;;;;;;;;;;;14.80;57.38;102283.97;1049450;28;625;-62
2022/05/01 00:09:54;;;;;;;;;;;;;;;14.78;57.32;102288.56;1047391;28;817;-62
2022/05/01 00:10:45;;;;;;;;;;;;;;;14.77;56.85;102292.19;1047041;28;631;-62
2022/05/01 00:11:35;;;;;;;;;;;;;;;14.79;56.93;102290.28;1048849;28;733;-62
2022/05/01 00:12:26;;;;;;;;;;;;;;;14.78;57.20;102285.00;1039737;28;662;-62
2022/05/01 00:13:16;;;;;;;;;;;;;;;14.79;56.96;102292.09;1040041;28;681;-61
2022/05/01 00:14:07;;;;;;;;;;;;;;;14.78;57.41;102291.25;1044089;28;1239;-62
2022/05/01 00:14:57;;;;;;;;;;;;;;;14.77;57.05;102296.69;1044849;28;650;-62
2022/05/01 00:15:48;;;;;;;;;;;;;;;14.76;57.00;102295.81;1044779;28;650;-62
2022/05/01 00:16:38;;;;;;;;;;;;;;;14.76;57.00;102292.28;1044723;28;654;-62
2022/05/01 00:17:28;;;;;;;;;;;;;;;14.75;57.32;102290.56;1044764;28;689;-61
2022/05/01 00:18:19;;;;;;;;;;;;;;;14.74;57.29;102288.81;1044727;28;669;-61
2022/05/01 00:19:09;;;;;;;;;;;;;;;14.75;57.01;102286.03;1046445;28;673;-61
2022/05/01 00:20:00;;;;;;;;;;;;;;;14.75;56.79;102294.09;1046384;28;653;-62
2022/05/01 00:20:50;;;;;;;;;;;;;;;14.74;57.14;102289.69;1046944;28;672;-61
2022/05/01 00:21:40;;;;;;;;;;;;;;;14.72;57.20;102280.84;1047431;28;705;-61
2022/05/01 00:22:31;;;;;;;;;;;;;;;14.71;57.41;102284.50;1044358;28;685;-61
2022/05/01 00:23:21;;;;;;;;;;;;;;;14.70;57.07;102280.09;1045662;28;645;-62
2022/05/01 00:24:12;;;;;;;;;;;;;;;14.71;57.52;102281.81;1047311;28;1680;-62
2022/05/01 00:25:02;;;;;;;;;;;;;;;14.72;57.34;102286.22;1048981;28;631;-62
2022/05/01 00:25:53;;;;;;;;;;;;;;;14.72;56.79;102280.84;1048984;28;625;-61
2022/05/01 00:26:43;;;;;;;;;;;;;;;14.70;57.27;102277.41;1048986;28;612;-61
2022/05/01 00:27:33;;;;;;;;;;;;;;;14.71;56.78;102272.91;1048475;28;685;-62
2022/05/01 00:28:24;;;;;;;;;;;;;;;14.69;57.19;102275.66;1047037;28;630;-61
2022/05/01 00:29:14;;;;;;;;;;;;;;;14.68;57.14;102273.97;1048960;28;630;-62
2022/05/01 00:30:05;;;;;;;;;;;;;;;14.69;56.86;102274.84;1048915;28;649;-61
2022/05/01 00:30:55;;;;;;;;;;;;;;;14.68;56.72;102273.97;1047863;28;760;-62
2022/05/01 00:31:46;;;;;;;;;;;;;;;14.69;56.71;102272.16;1047925;28;670;-62
2022/05/01 00:37:13;;;;;;;;;;;;;;;14.66;57.26;102273.19;1045990;28;638;-62
2022/05/01 00:38:03;;;;;;;;;;;;;;;14.67;56.87;102277.59;1046128;28;720;-61
2022/05/01 00:38:54;;;;;;;;;;;;;;;14.66;56.88;102275.88;1045475;28;630;-61
2022/05/01 00:39:44;;;;;;;;;;;;;;;14.66;57.11;102275.88;1045179;28;697;-61
2022/05/01 00:40:35;;;;;;;;;;;;;;;14.65;57.28;102268.78;1045889;28;742;-61
2022/05/01 00:41:26;;;;;;;;;;;;;;;14.65;57.22;102275.97;1045140;28;1945;-61
2022/05/01 00:42:17;;;;;;;;;;;;;;;14.66;56.86;102275.88;1044665;28;690;-61
2022/05/01 00:43:08;;;;;;;;;;;;;;;14.66;57.01;102272.31;1044822;28;694;-61
2022/05/01 00:43:58;;;;;;;;;;;;;;;14.64;56.75;102269.72;1045365;28;689;-61
2022/05/01 00:44:48;;;;;;;;;;;;;;;14.63;56.68;102264.44;1045801;28;786;-61
2022/05/01 00:45:39;;;;;;;;;;;;;;;14.62;57.14;102268.97;1045469;28;693;-62
2022/05/01 00:46:29;;;;;;;;;;;;;;;14.61;57.26;102275.28;1046053;28;712;-61
2022/05/01 00:47:20;;;;;;;;;;;;;;;14.60;56.76;102273.53;1045452;28;756;-62
2022/05/01 00:48:10;;;;;;;;;;;;;;;14.61;57.33;102275.28;1041969;28;614;-62
2022/05/01 00:49:01;;;;;;;;;;;;;;;14.61;57.28;102271.72;1045547;28;697;-62
2022/05/01 00:49:51;;;;;;;;;;;;;;;14.61;56.91;102274.41;1044802;28;891;-62
2022/05/01 00:50:43;;;;;;;;;;;;;;;14.62;56.37;102268.97;1042677;28;1264;-62
2022/05/01 00:51:33;;;;;;;;;;;;;;;14.61;56.85;102267.22;1045211;28;634;-62
2022/05/01 00:52:25;;;;;;;;;;;;;;;14.63;56.74;102265.31;1046535;28;653;-62
2022/05/01 00:53:15;;;;;;;;;;;;;;;14.63;57.17;102265.31;1045387;28;694;-62
2022/05/01 00:54:07;;;;;;;;;;;;;;;14.63;57.00;102261.78;1045947;28;623;-62
2022/05/01 00:54:57;;;;;;;;;;;;;;;14.62;56.44;102268.97;1045429;28;681;-62
2022/05/01 00:55:48;;;;;;;;;;;;;;;14.61;56.52;102264.53;1045590;28;637;-61
2022/05/01 00:56:38;;;;;;;;;;;;;;;14.62;56.24;102265.41;1046037;28;654;-61
2022/05/01 00:57:28;;;;;;;;;;;;;;;14.62;57.18;102260.91;1046023;28;560;-60
2022/05/01 00:58:19;;;;;;;;;;;;;;;14.62;57.17;102262.72;1045994;28;685;-60
2022/05/01 00:59:10;;;;;;;;;;;;;;;14.61;56.42;102256.50;1045470;28;675;-60
2022/05/01 01:00:00;;;;;;;;;;;;;;;14.61;56.40;102267.22;1041833;28;649;-60
2022/05/01 01:00:50;;;;;;;;;;;;;;;14.60;56.98;102254.75;1042384;28;686;-60
2022/05/01 01:01:42;;;;;;;;;;;;;;;14.60;56.99;102262.81;1042546;28;646;-60
2022/05/01 01:02:32;;;;;;;;;;;;;;;14.57;56.70;102263.00;1045000;28;674;-60
2022/05/01 01:03:23;;;;;;;;;;;;;;;14.58;56.51;102262.03;1045681;28;661;-60
2022/05/01 01:04:13;;;;;;;;;;;;;;;14.58;56.84;102256.66;1042284;28;685;-60
2022/05/01 01:05:03;;;;;;;;;;;;;;;14.58;56.50;102257.53;1045047;28;725;-60
2022/05/01 01:05:54;;;;;;;;;;;;;;;14.57;56.65;102260.31;1045672;28;626;-60
2022/05/01 01:06:44;;;;;;;;;;;;;;;14.57;56.31;102260.31;1042421;28;692;-60
2022/05/01 01:07:35;;;;;;;;;;;;;;;14.56;56.81;102259.44;1041801;28;673;-60
2022/05/01 01:08:25;;;;;;;;;;;;;;;14.56;56.81;102258.56;1041351;28;634;-60
2022/05/01 01:09:16;;;;;;;;;;;;;;;14.55;56.24;102257.72;1042463;28;630;-60
2022/05/01 01:10:06;;;;;;;;;;;;;;;14.55;56.47;102254.16;1042489;28;657;-60
2022/05/01 01:10:56;;;;;;;;;;;;;;;14.56;56.97;102266.63;1042418;28;652;-60
2022/05/01 01:11:47;;;;;;;;;;;;;;;14.55;56.84;102262.22;1042433;28;681;-60
2022/05/01 01:12:55;;;;;;;;;;;;;;;14.55;57.05;102259.53;1040293;28;729;-60
2022/05/01 01:13:46;;;;;;;;;;;;;;;14.54;57.11;102257.78;1041767;28;854;-60
2022/05/01 01:14:37;;;;;;;;;;;;;;;14.53;56.50;102259.63;1041328;28;678;-60
2022/05/01 01:15:28;;;;;;;;;;;;;;;14.52;56.46;102254.34;1040981;28;650;-60
2022/05/01 01:16:20;;;;;;;;;;;;;;;14.52;56.75;102257.03;1041236;28;890;-60
2022/05/01 01:17:10;;;;;;;;;;;;;;;14.50;56.48;102258.97;1041305;28;603;-60
2022/05/01 01:18:00;;;;;;;;;;;;;;;14.48;56.28;102251.00;1044960;28;701;-59
2022/05/01 01:18:51;;;;;;;;;;;;;;;14.49;56.92;102254.53;1045833;28;685;-60
2022/05/01 01:19:41;;;;;;;;;;;;;;;14.48;57.13;102258.19;1043531;28;1437;-60
2022/05/01 01:20:32;;;;;;;;;;;;;;;14.48;57.18;102251.00;1049379;28;1287;-59
2022/05/01 01:21:22;;;;;;;;;;;;;;;14.49;56.52;102251.88;1049390;28;1914;-60
2022/05/01 01:22:13;;;;;;;;;;;;;;;14.49;56.30;102255.41;1049626;28;678;-61
2022/05/01 01:23:03;;;;;;;;;;;;;;;14.48;56.46;102256.38;1050116;28;653;-61
2022/05/01 01:23:54;;;;;;;;;;;;;;;14.49;56.57;102257.22;1049153;28;1488;-61
2022/05/01 01:24:44;;;;;;;;;;;;;;;14.50;56.87;102257.16;1049456;28;630;-60
2022/05/01 01:25:35;;;;;;;;;;;;;;;14.50;56.23;102258.97;1050021;28;641;-60
2022/05/01 01:26:25;;;;;;;;;;;;;;;14.48;56.86;102255.50;1047880;28;623;-60
2022/05/01 01:27:16;;;;;;;;;;;;;;;14.48;56.71;102260.88;1049360;28;678;-60
2022/05/01 01:28:08;;;;;;;;;;;;;;;14.47;56.30;102253.78;1047848;28;619;-60
2022/05/01 01:28:58;;;;;;;;;;;;;;;14.47;56.71;102259.13;1051943;28;633;-60
2022/05/01 01:32:08;;;;;;;;;;;;;;;14.44;56.61;102262.84;1047579;28;709;-60
2022/05/01 01:32:58;;;;;;;;;;;;;;;14.44;56.22;102257.50;1045980;28;685;-60
2022/05/01 01:33:48;;;;;;;;;;;;;;;14.44;56.91;102257.50;1046032;28;663;-60
2022/05/01 01:34:39;;;;;;;;;;;;;;;14.44;56.09;102259.31;1044775;28;669;-60
2022/05/01 01:35:29;;;;;;;;;;;;;;;14.44;56.53;102254.81;1044850;28;665;-62
2022/05/01 01:36:20;;;;;;;;;;;;;;;14.43;56.04;102250.41;1045490;28;638;-60
2022/05/01 01:37:10;;;;;;;;;;;;;;;14.43;56.63;102258.44;1045473;28;627;-60
2022/05/01 01:38:00;;;;;;;;;;;;;;;14.43;56.67;102252.22;1045924;28;677;-62
2022/05/01 01:38:51;;;;;;;;;;;;;;;14.44;56.10;102259.31;1044693;28;708;-60
2022/05/01 01:39:41;;;;;;;;;;;;;;;14.44;56.67;102256.63;1045366;28;601;-60
2022/05/01 01:40:32;;;;;;;;;;;;;;;14.42;56.22;102250.47;1045185;28;704;-60
2022/05/01 01:41:22;;;;;;;;;;;;;;;14.42;56.28;102247.81;1045193;28;1898;-60
2022/05/01 01:42:13;;;;;;;;;;;;;;;14.40;56.52;102242.53;1040824;28;657;-60
2022/05/01 01:43:03;;;;;;;;;;;;;;;14.41;56.07;102254.13;1040758;28;634;-60
2022/05/01 01:43:53;;;;;;;;;;;;;;;14.41;56.56;102254.13;1041689;28;645;-60
2022/05/01 01:44:44;;;;;;;;;;;;;;;14.40;56.66;102252.34;1041318;28;1425;-61
2022/05/01 01:45:34;;;;;;;;;;;;;;;14.39;56.19;102251.50;1041755;28;697;-60
2022/05/01 01:46:25;;;;;;;;;;;;;;;14.39;56.74;102251.50;1041071;28;743;-60
2022/05/01 01:47:15;;;;;;;;;;;;;;;14.39;56.01;102250.63;1041626;28;690;-60
2022/05/01 01:48:06;;;;;;;;;;;;;;;14.40;56.12;102255.03;1041734;28;642;-60
2022/05/01 01:48:56;;;;;;;;;;;;;;;14.38;56.61;102254.25;1041164;28;685;-60
2022/05/01 01:49:47;;;;;;;;;;;;;;;14.38;55.89;102248.91;1041742;28;697;-60
2022/05/01 01:50:37;;;;;;;;;;;;;;;14.38;56.42;102249.75;1042777;28;1209;-61
2022/05/01 01:51:28;;;;;;;;;;;;;;;14.37;56.65;102255.22;1045308;28;633;-60
2022/05/01 01:52:18;;;;;;;;;;;;;;;14.36;55.66;102246.31;1045766;28;673;-59
2022/05/01 01:53:09;;;;;;;;;;;;;;;14.37;55.92;102252.53;1045685;28;657;-59
2022/05/01 01:53:59;;;;;;;;;;;;;;;14.36;55.85;102256.16;1046036;28;1465;-60
2022/05/01 01:54:51;;;;;;;;;;;;;;;14.35;56.60;102249.06;1045291;28;665;-60
2022/05/01 01:55:42;;;;;;;;;;;;;;;14.37;56.52;102257.88;1044880;28;643;-59
2022/05/01 01:56:32;;;;;;;;;;;;;;;14.36;56.18;102251.66;1045777;28;747;-60
2022/05/01 01:57:23;;;;;;;;;;;;;;;14.36;56.03;102250.81;1045032;28;674;-59
2022/05/01 01:58:14;;;;;;;;;;;;;;;14.34;56.40;102247.34;1044576;28;740;-59
2022/05/01 01:59:04;;;;;;;;;;;;;;;14.33;56.42;102245.66;1044934;28;653;-59
2022/05/01 01:59:54;;;;;;;;;;;;;;;14.33;56.05;102256.38;1045604;28;674;-60
2022/05/01 02:00:45;;;;;;;;;;;;;;;14.33;56.42;102245.66;1045102;28;724;-59
2022/05/01 02:01:35;;;;;;;;;;;;;;;14.32;56.28;102254.63;1045000;28;1890;-59
2022/05/01 02:02:26;;;;;;;;;;;;;;;14.32;55.88;102249.28;1044772;28;646;-59
2022/05/01 02:03:16;;;;;;;;;;;;;;;14.31;55.84;102248.41;1045328;28;718;-59
2022/05/01 02:04:06;;;;;;;;;;;;;;;14.31;56.42;102248.41;1045175;28;649;-59
2022/05/01 02:04:57;;;;;;;;;;;;;;;14.31;56.17;102250.22;1044647;28;693;-59
2022/05/01 02:05:47;;;;;;;;;;;;;;;14.30;55.86;102252.03;1047324;28;1425;-59
2022/05/01 02:06:38;;;;;;;;;;;;;;;14.31;56.16;102253.78;1047951;28;654;-59
2022/05/01 02:07:29;;;;;;;;;;;;;;;14.30;55.80;102251.19;1049402;28;681;-60
2022/05/01 02:08:19;;;;;;;;;;;;;;;14.30;55.90;102257.41;1049838;28;638;-59
2022/05/01 02:09:09;;;;;;;;;;;;;;;14.30;56.13;102254.72;1049423;28;657;-59
2022/05/01 02:10:00;;;;;;;;;;;;;;;14.30;56.56;102254.72;1049269;28;701;-59
2022/05/01 02:10:50;;;;;;;;;;;;;;;14.29;56.15;102252.13;1047582;28;685;-59
2022/05/01 02:11:41;;;;;;;;;;;;;;;14.28;56.53;102247.72;1047865;28;641;-58
2022/05/01 02:12:31;;;;;;;;;;;;;;;14.25;55.60;102246.94;1049287;28;704;-59
2022/05/01 02:13:22;;;;;;;;;;;;;;;14.27;55.82;102243.31;1047799;28;670;-58
2022/05/01 02:14:12;;;;;;;;;;;;;;;14.27;55.54;102254.03;1047358;28;678;-58
2022/05/01 02:15:02;;;;;;;;;;;;;;;14.27;55.82;102252.22;1049434;28;704;-59
2022/05/01 02:15:53;;;;;;;;;;;;;;;14.28;55.89;102251.25;1049250;28;661;-59
2022/05/01 02:16:44;;;;;;;;;;;;;;;14.28;55.93;102247.72;1048946;28;669;-59
2022/05/01 02:17:35;;;;;;;;;;;;;;;14.27;55.60;102254.03;1049555;28;1503;-59
2022/05/01 02:18:25;;;;;;;;;;;;;;;14.27;55.86;102248.66;1045085;28;654;-59
2022/05/01 02:19:16;;;;;;;;;;;;;;;14.26;55.87;102247.81;1045122;28;650;-59
2022/05/01 02:20:06;;;;;;;;;;;;;;;14.27;55.74;102245.97;1044565;28;614;-59
2022/05/01 02:22:05;;;;;;;;;;;;;;;14.27;55.54;102240.63;1045775;28;681;-59
2022/05/01 02:22:56;;;;;;;;;;;;;;;14.25;55.97;102238.03;1045122;28;682;-59
2022/05/01 02:23:46;;;;;;;;;;;;;;;14.26;56.30;102242.44;1045195;28;678;-59
2022/05/01 02:24:37;;;;;;;;;;;;;;;14.25;56.39;102241.56;1045527;28;622;-59
2022/05/01 02:25:28;;;;;;;;;;;;;;;14.25;56.41;102243.41;1044445;28;658;-59
2022/05/01 02:26:18;;;;;;;;;;;;;;;14.25;56.06;102241.56;1044783;28;662;-59
2022/05/01 02:27:09;;;;;;;;;;;;;;;14.24;56.21;102247.03;1045605;28;700;-59
2022/05/01 02:27:59;;;;;;;;;;;;;;;14.24;56.05;102239.84;1045095;28;766;-59
2022/05/01 02:28:50;;;;;;;;;;;;;;;14.23;55.98;102234.56;1044787;28;641;-59
2022/05/01 02:29:42;;;;;;;;;;;;;;;14.22;56.10;102236.38;1045322;28;1436;-59
2022/05/01 02:30:32;;;;;;;;;;;;;;;14.23;55.71;102240.78;1049765;28;681;-59
2022/05/01 02:31:23;;;;;;;;;;;;;;;14.23;55.38;102243.47;1049032;28;720;-60
2022/05/01 02:32:13;;;;;;;;;;;;;;;14.24;56.40;102242.53;1049186;28;618;-59
2022/05/01 02:33:04;;;;;;;;;;;;;;;14.24;56.04;102237.16;1049259;28;677;-59
2022/05/01 02:33:54;;;;;;;;;;;;;;;14.23;56.12;102239.94;1049825;28;630;-58
2022/05/01 02:34:45;;;;;;;;;;;;;;;14.23;55.84;102235.44;1049411;28;628;-59
2022/05/01 02:35:35;;;;;;;;;;;;;;;14.23;55.70;102239.94;1049807;28;618;-59
2022/05/01 02:36:26;;;;;;;;;;;;;;;14.20;56.01;102235.59;1049330;28;681;-59
2022/05/01 02:37:16;;;;;;;;;;;;;;;14.20;56.01;102240.97;1049296;28;692;-60
2022/05/01 02:38:07;;;;;;;;;;;;;;;14.22;55.61;102235.53;1049788;28;681;-60
2022/05/01 02:38:57;;;;;;;;;;;;;;;14.20;55.66;102235.59;1052890;28;693;-60
2022/05/01 02:39:48;;;;;;;;;;;;;;;14.19;55.77;102235.69;1053706;28;677;-60
2022/05/01 02:40:38;;;;;;;;;;;;;;;14.17;55.66;102243.81;1054163;28;716;-60
2022/05/01 02:41:28;;;;;;;;;;;;;;;14.17;55.57;102235.78;1048978;28;1874;-59
2022/05/01 02:42:19;;;;;;;;;;;;;;;14.15;55.89;102235.00;1048717;28;1409;-60
2022/05/01 02:43:09;;;;;;;;;;;;;;;14.15;55.48;102237.69;1049315;28;638;-60
2022/05/01 02:44:00;;;;;;;;;;;;;;;14.17;56.23;102245.63;1049458;28;701;-60
2022/05/01 02:44:50;;;;;;;;;;;;;;;14.16;56.20;102233.19;1049229;28;693;-60
2022/05/01 02:45:40;;;;;;;;;;;;;;;14.16;55.52;102233.19;1048882;28;769;-60
2022/05/01 02:46:32;;;;;;;;;;;;;;;14.14;56.07;102230.63;1049231;28;697;-60
2022/05/01 02:47:22;;;;;;;;;;;;;;;14.15;56.12;102232.31;1049783;28;692;-60
2022/05/01 02:48:12;;;;;;;;;;;;;;;14.16;55.39;102236.72;1049375;28;645;-60
2022/05/01 02:49:04;;;;;;;;;;;;;;;14.15;55.34;102224.28;1049231;28;615;-60
2022/05/01 02:49:55;;;;;;;;;;;;;;;14.14;55.37;102230.63;1048525;28;634;-60
2022/05/01 02:50:45;;;;;;;;;;;;;;;14.13;56.05;102222.66;1045119;28;1203;-60
2022/05/01 02:51:36;;;;;;;;;;;;;;;14.13;55.48;102233.38;1044517;28;630;-60
2022/05/01 02:52:27;;;;;;;;;;;;;;;14.13;55.74;102228.88;1045098;28;724;-63
2022/05/01 02:53:17;;;;;;;;;;;;;;;14.14;55.21;102227.94;1044394;28;635;-60
2022/05/01 02:54:08;;;;;;;;;;;;;;;14.14;55.66;102229.75;1044469;28;717;-60
2022/05/01 02:54:58;;;;;;;;;;;;;;;14.12;55.92;102227.16;1045017;28;606;-60
2022/05/01 02:55:49;;;;;;;;;;;;;;;14.11;55.45;102228.09;1045550;28;716;-61
2022/05/01 02:56:39;;;;;;;;;;;;;;;14.10;55.64;102234.41;1045590;28;642;-60
2022/05/01 02:57:30;;;;;;;;;;;;;;;14.10;55.27;102223.69;1045720;28;700;-60
2022/05/01 02:58:20;;;;;;;;;;;;;;;14.11;55.78;102221.88;1045616;28;669;-60
2022/05/01 02:59:10;;;;;;;;;;;;;;;14.11;56.05;102220.06;1045617;28;649;-60
2022/05/01 03:00:01;;;;;;;;;;;;;;;14.13;55.43;102219.97;1045466;28;626;-60
2022/05/01 03:00:52;;;;;;;;;;;;;;;14.11;55.78;102228.09;1044631;28;657;-60
2022/05/01 03:01:43;;;;;;;;;;;;;;;14.11;55.43;102225.44;1045537;28;689;-60
2022/05/01 03:02:33;;;;;;;;;;;;;;;14.09;55.83;102221.97;1044354;28;642;-60
2022/05/01 03:03:24;;;;;;;;;;;;;;;14.11;55.43;102219.19;1040461;28;658;-60
2022/05/01 03:04:14;;;;;;;;;;;;;;;14.09;55.12;102226.47;1040115;28;662;-60
2022/05/01 03:05:05;;;;;;;;;;;;;;;14.08;55.69;102228.28;1044629;28;677;-60
2022/05/01 03:05:57;;;;;;;;;;;;;;;14.08;55.93;102219.38;1045276;28;670;-60
2022/05/01 03:06:47;;;;;;;;;;;;;;;14.07;55.18;102221.19;1040919;28;649;-60
2022/05/01 03:07:37;;;;;;;;;;;;;;;14.06;55.53;102222.16;1041547;28;677;-60
2022/05/01 03:08:28;;;;;;;;;;;;;;;14.05;55.08;102220.41;1041379;28;725;-61
2022/05/01 03:09:18;;;;;;;;;;;;;;;14.06;55.99;102222.16;1041466;28;685;-60
2022/05/01 03:10:10;;;;;;;;;;;;;;;14.06;55.78;102211.41;1040769;28;702;-60
2022/05/01 03:11:01;;;;;;;;;;;;;;;14.06;55.84;102216.78;1040446;28;1441;-60
2022/05/01 03:11:51;;;;;;;;;;;;;;;14.06;55.09;102216.78;1041529;28;629;-60
2022/05/01 03:12:42;;;;;;;;;;;;;;;14.05;55.15;102217.72;1040626;28;646;-59
2022/05/01 03:13:32;;;;;;;;;;;;;;;14.05;55.03;102214.19;1041413;28;685;-60
2022/05/01 03:14:23;;;;;;;;;;;;;;;14.04;55.94;102212.47;1041395;28;654;-60
2022/05/01 03:15:13;;;;;;;;;;;;;;;14.03;55.12;102221.44;1040767;28;693;-60
2022/05/01 03:16:04;;;;;;;;;;;;;;;14.02;55.29;102215.22;1041504;28;717;-60
2022/05/01 03:16:54;;;;;;;;;;;;;;;14.02;55.61;102209.84;1041352;28;774;-60
2022/05/01 03:22:21;;;;;;;;;;;;;;;13.98;55.22;102208.31;1048415;28;677;-61
2022/05/01 03:23:11;;;;;;;;;;;;;;;13.97;55.88;102209.28;1048937;28;705;-61
2022/05/01 03:24:02;;;;;;;;;;;;;;;13.97;55.26;102211.97;1049131;28;645;-61
2022/05/01 03:24:52;;;;;;;;;;;;;;;13.98;55.89;102210.97;1048983;28;638;-60
2022/05/01 03:25:43;;;;;;;;;;;;;;;14.00;55.22;102216.25;1048626;28;674;-60
2022/05/01 03:26:33;;;;;;;;;;;;;;;13.98;55.55;102208.31;1048980;28;622;-60
2022/05/01 03:27:23;;;;;;;;;;;;;;;13.98;54.92;102212.78;1049002;28;602;-60
2022/05/01 03:28:14;;;;;;;;;;;;;;;13.98;54.78;102212.78;1049069;28;602;-60
2022/05/01 03:29:04;;;;;;;;;;;;;;;13.97;55.29;102206.59;1048974;28;634;-60
2022/05/01 03:31:09;;;;;;;;;;;;;;;13.98;55.66;102208.31;1048537;28;697;-61
2022/05/01 03:31:59;;;;;;;;;;;;;;;13.97;55.66;102211.09;1049450;28;672;-60
2022/05/01 03:32:49;;;;;;;;;;;;;;;13.96;55.81;102212.91;1049013;28;653;-60
2022/05/01 03:33:41;;;;;;;;;;;;;;;13.96;55.68;102210.22;1041317;28;696;-60
2022/05/01 03:34:32;;;;;;;;;;;;;;;13.97;55.17;102211.09;1040747;28;682;-60
2022/05/01 03:35:22;;;;;;;;;;;;;;;13.95;54.90;102210.31;1038822;28;1421;-60
2022/05/01 03:36:14;;;;;;;;;;;;;;;13.95;55.20;102213.00;1040179;28;853;-60
2022/05/01 03:37:06;;;;;;;;;;;;;;;13.94;54.84;102211.28;1040406;28;610;-59
2022/05/01 03:37:57;;;;;;;;;;;;;;;13.95;54.92;102210.31;1040582;28;649;-60
2022/05/01 03:38:47;;;;;;;;;;;;;;;13.93;55.14;102210.41;1039616;28;590;-59
2022/05/01 03:39:37;;;;;;;;;;;;;;;13.93;55.65;102210.41;1039635;28;634;-59
2022/05/01 03:40:28;;;;;;;;;;;;;;;13.93;55.23;102209.53;1040514;28;709;-60
2022/05/01 03:41:19;;;;;;;;;;;;;;;13.93;55.59;102210.41;1040520;28;1902;-60
2022/05/01 03:42:09;;;;;;;;;;;;;;;13.96;55.50;102209.38;1041217;28;646;-60
2022/05/01 03:42:59;;;;;;;;;;;;;;;13.95;54.63;102196.91;1040712;28;696;-60
2022/05/01 03:43:50;;;;;;;;;;;;;;;13.96;54.97;102207.56;1040221;28;677;-60
2022/05/01 03:44:40;;;;;;;;;;;;;;;13.93;55.13;102210.41;1040717;28;693;-60
2022/05/01 03:45:31;;;;;;;;;;;;;;;13.93;55.41;102205.03;1044653;28;1413;-60
2022/05/01 03:46:22;;;;;;;;;;;;;;;13.93;55.06;102204.19;1047084;28;681;-59
2022/05/01 03:47:12;;;;;;;;;;;;;;;13.92;54.88;102208.69;1048367;28;618;-59
2022/05/01 03:48:03;;;;;;;;;;;;;;;13.92;55.41;102208.69;1049058;28;634;-59
2022/05/01 03:48:53;;;;;;;;;;;;;;;13.92;55.43;102208.69;1052580;28;716;-60
2022/05/01 03:49:44;;;;;;;;;;;;;;;13.92;54.78;102210.50;1051837;28;662;-60
2022/05/01 03:50:34;;;;;;;;;;;;;;;13.90;55.49;102205.22;1048667;28;1239;-60
2022/05/01 03:51:25;;;;;;;;;;;;;;;13.89;55.30;102203.47;1047788;28;729;-60
2022/05/01 03:52:15;;;;;;;;;;;;;;;13.91;54.72;102209.63;1047978;28;631;-59
2022/05/01 03:53:06;;;;;;;;;;;;;;;13.92;55.21;102208.69;1048026;28;684;-59
2022/05/01 03:53:57;;;;;;;;;;;;;;;13.91;55.48;102206.94;1044988;28;638;-59
2022/05/01 03:54:47;;;;;;;;;;;;;;;13.89;55.53;102201.66;1045561;28;760;-59
2022/05/01 03:55:38;;;;;;;;;;;;;;;13.89;54.93;102201.66;1044421;28;728;-59
2022/05/01 03:56:28;;;;;;;;;;;;;;;13.92;55.41;102208.69;1044293;28;685;-59
2022/05/01 03:57:18;;;;;;;;;;;;;;;13.90;54.98;102205.22;1045477;28;1472;-59
2022/05/01 03:58:09;;;;;;;;;;;;;;;13.88;54.57;102205.31;1048075;28;641;-59
2022/05/01 03:58:59;;;;;;;;;;;;;;;13.87;55.13;102203.56;1047215;28;642;-59
2022/05/01 03:59:50;;;;;;;;;;;;;;;13.85;54.61;102199.25;1048514;28;717;-59
2022/05/01 04:00:44;;;;;;;;;;;;;;;13.87;55.02;102208.06;1048899;28;601;-59
2022/05/01 04:01:34;;;;;;;;;;;;;;;13.88;55.17;102201.75;1049492;28;1918;-60
2022/05/01 04:02:24;;;;;;;;;;;;;;;13.89;54.65;102203.47;1048886;28;625;-59
2022/05/01 04:03:15;;;;;;;;;;;;;;;13.89;54.75;102203.47;1049038;28;694;-59
2022/05/01 04:04:05;;;;;;;;;;;;;;;13.87;54.90;102206.25;1048989;28;610;-60
2022/05/01 04:04:57;;;;;;;;;;;;;;;13.88;54.75;102201.75;1048919;28;633;-60
2022/05/01 04:05:48;;;;;;;;;;;;;;;13.88;55.26;102204.44;1048488;28;677;-59
2022/05/01 04:06:39;;;;;;;;;;;;;;;13.86;54.62;102206.34;1048931;28;664;-60
2022/05/01 04:07:29;;;;;;;;;;;;;;;13.88;55.08;102204.44;1046970;28;734;-59
2022/05/01 04:08:19;;;;;;;;;;;;;;;13.86;55.14;102209.00;1048692;28;618;-59
2022/05/01 04:09:12;;;;;;;;;;;;;;;13.86;55.28;102204.53;1046813;28;1433;-59
2022/05/01 04:10:02;;;;;;;;;;;;;;;13.85;55.04;102204.59;1043795;28;618;-59
2022/05/01 04:10:52;;;;;;;;;;;;;;;13.83;55.11;102207.38;1043799;28;641;-59
2022/05/01 04:11:43;;;;;;;;;;;;;;;13.84;55.33;102205.56;1044477;28;681;-59
2022/05/01 04:12:33;;;;;;;;;;;;;;;13.84;54.67;102206.41;1045101;28;626;-59
2022/05/01 04:13:24;;;;;;;;;;;;;;;13.83;55.26;102203.81;1044849;28;713;-59
2022/05/01 04:14:14;;;;;;;;;;;;;;;13.83;54.55;102201.16;1044505;28;619;-59
2022/05/01 04:15:07;;;;;;;;;;;;;;;13.82;55.25;102210.13;1044738;28;610;-59
2022/05/01 04:15:57;;;;;;;;;;;;;;;13.84;54.57;102208.22;1044716;28;622;-59
2022/05/01 04:16:50;;;;;;;;;;;;;;;13.82;54.75;102205.63;1044749;28;721;-59
2022/05/01 04:17:40;;;;;;;;;;;;;;;13.82;54.54;102207.44;1044817;28;646;-59
2022/05/01 04:18:31;;;;;;;;;;;;;;;13.81;55.36;102206.59;1044801;28;642;-59
2022/05/01 04:19:21;;;;;;;;;;;;;;;13.81;55.24;102206.59;1044667;28;658;-59
2022/05/01 04:20:12;;;;;;;;;;;;;;;13.81;54.48;102214.63;1044772;28;1121;-58
2022/05/01 04:21:03;;;;;;;;;;;;;;;13.80;54.97;102209.34;1044482;28;1510;-58
2022/05/01 04:21:53;;;;;;;;;;;;;;;13.80;54.87;102204.00;1044033;28;668;-59
2022/05/01 04:22:44;;;;;;;;;;;;;;;13.80;54.65;102217.38;1044238;28;694;-59
2022/05/01 04:23:34;;;;;;;;;;;;;;;13.80;55.21;102206.66;1043523;28;636;-59
2022/05/01 04:24:24;;;;;;;;;;;;;;;13.80;54.64;102212.03;1044432;28;694;-60
2022/05/01 04:25:16;;;;;;;;;;;;;;;13.80;54.37;102201.31;1043853;28;649;-59
2022/05/01 04:26:06;;;;;;;;;;;;;;;13.80;54.64;102204.00;1045336;28;704;-63
2022/05/01 04:26:57;;;;;;;;;;;;;;;13.77;54.32;102205.06;1045949;28;732;-60
2022/05/01 04:27:47;;;;;;;;;;;;;;;13.76;54.25;102203.31;1043967;28;717;-60
2022/05/01 04:28:37;;;;;;;;;;;;;;;13.79;54.56;102207.66;1044250;28;619;-59
2022/05/01 04:29:38;;;;;;;;;;;;;;;13.79;54.96;102207.66;1044835;28;1461;-59
2022/05/01 04:30:32;;;;;;;;;;;;;;;13.78;54.38;102205.94;1049427;28;669;-59
2022/05/01 04:31:22;;;;;;;;;;;;;;;13.79;54.93;102204.97;1049829;28;638;-59
2022/05/01 04:32:16;;;;;;;;;;;;;;;13.77;55.05;102206.88;1047233;28;638;-60
2022/05/01 04:33:06;;;;;;;;;;;;;;;13.78;54.49;102211.28;1049851;28;653;-59
2022/05/01 04:33:57;;;;;;;;;;;;;;;13.79;54.89;102213.00;1049906;28;645;-59
2022/05/01 04:34:47;;;;;;;;;;;;;;;13.79;54.54;102211.16;1049553;28;610;-60
2022/05/01 04:35:38;;;;;;;;;;;;;;;13.77;54.61;102206.88;1049415;28;665;-61
2022/05/01 04:36:29;;;;;;;;;;;;;;;13.77;55.09;102209.56;1050003;28;676;-61
2022/05/01 04:37:19;;;;;;;;;;;;;;;13.77;55.19;102209.56;1046782;28;611;-60
2022/05/01 04:38:10;;;;;;;;;;;;;;;13.77;54.40;102209.56;1048027;28;670;-60
2022/05/01 04:39:00;;;;;;;;;;;;;;;13.77;55.04;102205.06;1048942;28;642;-61
2022/05/01 04:39:51;;;;;;;;;;;;;;;13.76;55.12;102210.50;1046819;28;1550;-60
2022/05/01 04:40:41;;;;;;;;;;;;;;;13.77;54.76;102209.56;1048271;28;633;-60